Time;durP1;ratioP1;P1;durP2;ratioP2;P2;SDS_P1;SDS_P2;PMS_P1;PMS_P2;Temp;Humidity;BMP_temperature;BMP_pressure;BME280_temperature;BME280_humidity;BME280_pressure;Samples;Min_cycle;Max_cycle;Signal;HPM_P1;HPM_P2
2023/09/26 00:00:29;;;;;;;11.90;8.23;;;18.40;84.90;;;;;;5050213;28;20264;-65
2023/09/26 00:02:56;;;;;;;15.30;8.53;;;18.40;84.90;;;;;;5061364;28;20222;-65
2023/09/26 00:05:24;;;;;;;13.87;8.67;;;18.40;84.90;;;;;;5057177;28;20294;-65
2023/09/26 00:07:51;;;;;;;12.77;9.00;;;18.40;85.20;;;;;;5043143;28;20204;-65
2023/09/26 00:10:19;;;;;;;13.40;8.97;;;18.30;85.10;;;;;;5053842;28;20213;-64
2023/09/26 00:12:47;;;;;;;14.63;8.83;;;18.30;85.00;;;;;;5061456;28;20213;-65
2023/09/26 00:15:15;;;;;;;15.93;9.17;;;18.40;84.90;;;;;;5065011;28;20706;-65
2023/09/26 00:17:42;;;;;;;12.83;8.90;;;18.40;84.90;;;;;;5047598;28;20209;-64
2023/09/26 00:20:27;;;;;;;11.73;8.07;;;18.30;84.80;;;;;;5060240;28;20214;-65
2023/09/26 00:22:55;;;;;;;13.33;8.57;;;18.40;85.00;;;;;;5062523;28;20283;-65
2023/09/26 00:25:23;;;;;;;11.13;8.37;;;18.40;85.40;;;;;;5062487;28;20726;-64
2023/09/26 00:27:52;;;;;;;14.57;10.17;;;18.30;85.90;;;;;;5062953;28;20205;-65
2023/09/26 00:30:27;;;;;;;9.87;8.43;;;18.30;86.20;;;;;;5067201;28;20233;-65
2023/09/26 00:32:54;;;;;;;12.50;9.60;;;18.30;86.50;;;;;;5058888;28;20266;-65
2023/09/26 00:35:22;;;;;;;10.40;9.23;;;18.20;86.50;;;;;;5062741;28;20302;-65
2023/09/26 00:37:50;;;;;;;11.87;8.57;;;18.20;87.20;;;;;;5062173;28;20219;-65
2023/09/26 00:40:21;;;;;;;16.17;8.97;;;18.20;86.70;;;;;;5060346;28;20505;-65
2023/09/26 00:42:49;;;;;;;14.03;9.90;;;18.20;87.00;;;;;;5058160;28;20195;-65
2023/09/26 00:45:17;;;;;;;11.90;8.93;;;18.10;87.20;;;;;;5060668;28;20196;-65
2023/09/26 00:47:44;;;;;;;17.20;10.27;;;18.10;87.40;;;;;;5062497;28;20230;-65
2023/09/26 00:50:12;;;;;;;11.60;9.27;;;18.10;87.50;;;;;;5057879;28;20740;-65
2023/09/26 00:52:42;;;;;;;12.70;8.43;;;18.10;87.60;;;;;;5059887;28;20259;-65
2023/09/26 00:55:10;;;;;;;11.83;9.17;;;18.00;87.50;;;;;;5062034;28;20190;-65
2023/09/26 00:57:38;;;;;;;12.83;8.57;;;18.00;87.60;;;;;;5058470;28;20210;-64
2023/09/26 01:00:07;;;;;;;13.87;9.43;;;18.00;87.70;;;;;;5056429;28;20320;-65
2023/09/26 01:02:34;;;;;;;14.60;9.33;;;18.00;87.70;;;;;;5059895;28;20201;-65
2023/09/26 01:05:02;;;;;;;14.27;9.17;;;18.00;87.90;;;;;;5058770;28;20205;-65
2023/09/26 01:07:31;;;;;;;13.40;9.03;;;18.00;88.00;;;;;;5056857;28;20220;-65
2023/09/26 01:10:00;;;;;;;14.87;9.00;;;18.00;88.00;;;;;;5055629;28;20220;-65
2023/09/26 01:12:28;;;;;;;14.83;9.30;;;17.90;88.00;;;;;;5057466;28;20224;-65
2023/09/26 01:14:55;;;;;;;18.20;9.83;;;17.90;88.10;;;;;;5061011;28;20212;-64
2023/09/26 01:17:22;;;;;;;13.43;10.03;;;17.90;88.30;;;;;;5060780;28;20694;-65
2023/09/26 01:19:50;;;;;;;13.10;10.10;;;17.90;88.50;;;;;;5056496;28;20207;-65
2023/09/26 01:22:18;;;;;;;11.77;10.43;;;17.90;88.50;;;;;;5057618;28;20359;-65
2023/09/26 01:24:45;;;;;;;14.03;11.50;;;17.80;88.40;;;;;;5055626;28;20556;-65
2023/09/26 01:27:12;;;;;;;17.53;11.17;;;17.80;88.50;;;;;;5052522;28;20236;-65
2023/09/26 01:29:39;;;;;;;15.83;10.73;;;17.80;88.70;;;;;;5060387;28;20672;-65
2023/09/26 01:32:06;;;;;;;13.97;10.47;;;17.80;88.90;;;;;;5060740;28;20296;-64
2023/09/26 01:34:34;;;;;;;14.27;11.40;;;17.70;88.90;;;;;;5053494;28;20215;-64
2023/09/26 01:37:01;;;;;;;15.43;11.23;;;17.70;89.00;;;;;;5055527;28;20291;-65
2023/09/26 01:39:30;;;;;;;16.20;11.90;;;17.70;89.20;;;;;;5053821;28;20266;-65
2023/09/26 01:41:57;;;;;;;22.13;12.43;;;17.70;89.20;;;;;;5046204;28;20211;-65
2023/09/26 01:44:24;;;;;;;15.27;12.00;;;17.70;89.10;;;;;;5063942;28;20202;-65
2023/09/26 01:46:51;;;;;;;13.97;11.97;;;17.70;88.80;;;;;;5056313;28;20206;-65
2023/09/26 01:49:18;;;;;;;18.53;11.60;;;17.70;88.60;;;;;;5055991;28;20206;-66
2023/09/26 01:51:46;;;;;;;12.07;10.57;;;17.70;88.70;;;;;;5057952;28;20199;-65
2023/09/26 01:54:13;;;;;;;15.57;12.07;;;17.70;88.80;;;;;;5046649;28;20200;-65
2023/09/26 01:56:40;;;;;;;18.83;13.07;;;17.70;89.00;;;;;;5055786;28;20211;-65
2023/09/26 01:59:07;;;;;;;19.47;13.13;;;17.70;89.20;;;;;;5053880;28;20265;-65
2023/09/26 02:01:35;;;;;;;17.87;12.20;;;17.70;89.30;;;;;;5060447;28;20199;-65
2023/09/26 02:04:02;;;;;;;14.67;11.53;;;17.70;89.40;;;;;;5045477;28;20207;-65
2023/09/26 02:06:29;;;;;;;18.67;13.23;;;17.70;89.40;;;;;;5057248;28;20200;-65
2023/09/26 02:08:56;;;;;;;23.47;12.93;;;17.70;89.40;;;;;;5049992;28;20199;-65
2023/09/26 02:11:23;;;;;;;18.83;12.47;;;17.70;90.00;;;;;;5050639;28;20245;-65
2023/09/26 02:13:50;;;;;;;19.43;11.27;;;17.70;89.40;;;;;;5056413;28;20196;-65
2023/09/26 02:16:18;;;;;;;19.07;11.73;;;17.70;89.50;;;;;;5055397;28;20282;-65
2023/09/26 02:18:45;;;;;;;15.73;11.23;;;17.70;89.50;;;;;;5058998;28;20193;-65
2023/09/26 02:21:16;;;;;;;15.73;12.37;;;17.70;89.60;;;;;;5051532;28;20300;-64
2023/09/26 02:23:43;;;;;;;16.60;12.87;;;17.70;89.80;;;;;;5043802;28;20632;-64
2023/09/26 02:26:10;;;;;;;14.03;12.13;;;17.60;89.90;;;;;;5050363;28;20538;-64
2023/09/26 02:28:37;;;;;;;18.00;12.87;;;17.60;90.00;;;;;;5054359;28;20318;-65
2023/09/26 02:31:13;;;;;;;18.90;12.30;;;17.50;90.00;;;;;;5055530;28;20235;-65
2023/09/26 02:33:40;;;;;;;18.97;12.47;;;17.50;90.10;;;;;;5057379;28;20585;-65
2023/09/26 02:36:07;;;;;;;15.77;12.50;;;17.50;90.20;;;;;;5057242;28;20237;-65
2023/09/26 02:38:34;;;;;;;16.60;12.27;;;17.50;90.20;;;;;;5040660;28;20512;-65
2023/09/26 02:41:01;;;;;;;16.23;12.43;;;17.50;90.20;;;;;;5058218;28;20235;-65
2023/09/26 02:43:30;;;;;;;21.70;12.20;;;17.50;90.20;;;;;;5057312;28;20220;-65
2023/09/26 02:45:57;;;;;;;19.50;13.87;;;17.50;90.30;;;;;;5064932;28;20209;-65
2023/09/26 02:48:24;;;;;;;18.80;12.97;;;17.50;90.30;;;;;;5062710;28;20200;-65
2023/09/26 02:50:51;;;;;;;18.60;13.10;;;17.50;90.30;;;;;;5054572;28;20262;-65
2023/09/26 02:53:18;;;;;;;16.77;13.57;;;17.50;90.30;;;;;;5047640;28;20220;-65
2023/09/26 02:55:45;;;;;;;16.67;11.93;;;17.50;90.30;;;;;;5054278;28;20199;-65
2023/09/26 02:58:12;;;;;;;17.20;12.47;;;17.50;90.20;;;;;;5055613;28;20695;-65
2023/09/26 03:00:42;;;;;;;18.37;13.27;;;17.50;90.20;;;;;;5057416;28;20204;-64
2023/09/26 03:03:09;;;;;;;19.60;13.83;;;17.40;90.10;;;;;;5060730;28;20632;-65
2023/09/26 03:05:36;;;;;;;17.63;12.67;;;17.40;90.10;;;;;;5038076;28;20218;-65
2023/09/26 03:08:04;;;;;;;17.77;12.80;;;17.40;90.10;;;;;;5052138;28;20301;-65
2023/09/26 03:10:31;;;;;;;16.27;12.57;;;17.40;90.00;;;;;;5056770;28;20280;-65
2023/09/26 03:13:02;;;;;;;19.87;13.67;;;17.40;90.00;;;;;;5062028;28;20297;-65
2023/09/26 03:15:29;;;;;;;16.23;12.00;;;17.40;90.00;;;;;;5046021;28;20204;-65
2023/09/26 03:17:56;;;;;;;16.63;13.33;;;17.40;89.80;;;;;;5061464;28;20204;-66
2023/09/26 03:20:24;;;;;;;18.30;13.07;;;17.40;89.70;;;;;;5039363;28;20201;-65
2023/09/26 03:22:51;;;;;;;21.90;13.10;;;17.40;89.70;;;;;;5065398;28;20226;-65
2023/09/26 03:25:18;;;;;;;18.70;13.77;;;17.30;89.50;;;;;;5053619;28;20612;-65
2023/09/26 03:27:46;;;;;;;17.57;12.93;;;17.30;89.60;;;;;;5058987;28;20199;-65
2023/09/26 03:30:17;;;;;;;15.60;12.57;;;17.30;89.70;;;;;;5053284;28;20219;-64
2023/09/26 03:32:44;;;;;;;17.70;12.87;;;17.20;89.80;;;;;;5052885;28;20200;-66
2023/09/26 03:35:11;;;;;;;16.70;12.70;;;17.20;90.00;;;;;;5054239;28;20199;-65
2023/09/26 03:37:39;;;;;;;14.73;12.00;;;17.20;90.00;;;;;;5058574;28;20202;-65
2023/09/26 03:40:07;;;;;;;14.43;12.07;;;17.20;90.10;;;;;;5046006;28;20299;-65
2023/09/26 03:42:34;;;;;;;13.20;11.33;;;17.20;90.10;;;;;;5059150;28;20210;-65
2023/09/26 03:45:01;;;;;;;16.43;11.90;;;17.20;90.10;;;;;;5059562;28;20283;-65
2023/09/26 03:47:28;;;;;;;14.87;10.97;;;17.20;90.10;;;;;;5054413;28;20208;-64
2023/09/26 03:49:55;;;;;;;14.03;11.10;;;17.20;90.20;;;;;;5055983;28;20246;-65
2023/09/26 03:52:23;;;;;;;13.97;10.63;;;17.10;90.10;;;;;;5060238;28;20222;-65
2023/09/26 03:54:50;;;;;;;16.17;10.87;;;17.10;90.20;;;;;;5057558;28;20195;-65
2023/09/26 03:57:17;;;;;;;13.20;11.20;;;17.10;90.20;;;;;;5056445;28;20290;-64
2023/09/26 03:59:50;;;;;;;13.73;10.93;;;17.10;90.20;;;;;;5055240;28;20317;-64
2023/09/26 04:02:17;;;;;;;14.30;10.40;;;17.10;90.30;;;;;;5056275;28;20525;-64
2023/09/26 04:04:44;;;;;;;11.67;10.50;;;17.10;90.30;;;;;;5057975;28;20196;-65
2023/09/26 04:07:12;;;;;;;12.40;10.33;;;17.00;90.30;;;;;;5053872;28;20197;-65
2023/09/26 04:09:39;;;;;;;15.00;10.70;;;17.00;90.30;;;;;;5054134;28;20614;-65
2023/09/26 04:12:06;;;;;;;13.33;10.50;;;17.00;90.30;;;;;;5054177;28;20206;-65
2023/09/26 04:14:33;;;;;;;11.00;9.87;;;17.00;90.40;;;;;;5058333;28;20221;-65
2023/09/26 04:17:00;;;;;;;12.87;9.90;;;17.00;90.40;;;;;;5051198;28;20591;-65
2023/09/26 04:19:27;;;;;;;15.33;10.17;;;16.90;90.40;;;;;;5059142;28;20196;-65
2023/09/26 04:21:55;;;;;;;13.23;9.73;;;16.90;90.50;;;;;;5053912;28;20228;-65
2023/09/26 04:24:22;;;;;;;13.83;10.27;;;16.90;90.50;;;;;;5050417;28;20631;-65
2023/09/26 04:26:49;;;;;;;12.60;9.97;;;16.90;90.50;;;;;;5052351;28;20749;-64
2023/09/26 04:29:16;;;;;;;13.00;9.37;;;16.90;90.50;;;;;;5052184;28;20664;-65
2023/09/26 04:31:43;;;;;;;10.63;8.80;;;16.90;90.50;;;;;;5051630;28;20216;-65
2023/09/26 04:34:10;;;;;;;13.07;9.23;;;16.90;90.50;;;;;;5049819;28;20195;-65
2023/09/26 04:36:37;;;;;;;11.60;9.43;;;16.90;90.50;;;;;;5053759;28;20193;-64
2023/09/26 04:39:04;;;;;;;11.67;9.03;;;16.90;90.50;;;;;;5052782;28;20227;-65
2023/09/26 04:41:32;;;;;;;13.53;9.27;;;16.90;90.50;;;;;;5043082;28;20288;-65
2023/09/26 04:43:59;;;;;;;13.23;9.03;;;16.90;90.50;;;;;;5045621;28;20218;-65
2023/09/26 04:46:26;;;;;;;11.37;9.03;;;16.90;90.60;;;;;;5068401;28;20248;-64
2023/09/26 04:48:53;;;;;;;11.57;9.13;;;16.90;90.60;;;;;;5052190;28;20266;-65
2023/09/26 04:51:20;;;;;;;13.83;8.67;;;16.90;90.40;;;;;;5052904;28;20246;-65
2023/09/26 04:53:47;;;;;;;12.67;8.53;;;16.90;90.40;;;;;;5055312;28;20202;-65
2023/09/26 04:56:14;;;;;;;11.00;9.27;;;16.80;90.30;;;;;;5055089;28;20192;-64
2023/09/26 04:58:42;;;;;;;12.70;9.50;;;16.80;90.30;;;;;;5048187;28;20248;-65
2023/09/26 05:01:16;;;;;;;13.73;9.20;;;16.80;90.50;;;;;;5056746;28;20203;-65
2023/09/26 05:03:44;;;;;;;11.40;9.13;;;16.80;90.20;;;;;;5058787;28;20227;-64
2023/09/26 05:06:12;;;;;;;12.40;9.10;;;16.80;90.20;;;;;;5058113;28;20231;-65
2023/09/26 05:08:40;;;;;;;12.80;10.10;;;16.80;90.20;;;;;;5054997;28;20198;-64
2023/09/26 05:11:15;;;;;;;11.93;9.47;;;16.70;90.30;;;;;;5063105;28;20225;-66
2023/09/26 05:13:43;;;;;;;12.27;9.30;;;16.70;90.30;;;;;;5050445;28;20233;-64
2023/09/26 05:16:12;;;;;;;13.77;9.27;;;16.70;90.40;;;;;;5050202;28;20624;-64
2023/09/26 05:18:39;;;;;;;13.67;8.87;;;16.80;90.40;;;;;;5060618;28;20547;-64
2023/09/26 05:21:07;;;;;;;12.30;9.63;;;16.70;90.50;;;;;;5061618;28;20491;-64
2023/09/26 05:23:35;;;;;;;14.77;9.53;;;16.70;90.40;;;;;;5063150;28;20279;-64
2023/09/26 05:26:08;;;;;;;15.70;10.07;;;16.80;90.40;;;;;;5056845;28;20533;-63
2023/09/26 05:28:35;;;;;;;11.70;9.47;;;16.80;90.40;;;;;;5059708;28;20198;-64
2023/09/26 05:31:03;;;;;;;12.07;9.27;;;16.80;90.50;;;;;;5057415;28;20323;-64
2023/09/26 05:33:31;;;;;;;10.33;8.83;;;16.80;90.50;;;;;;5064542;28;20207;-64
2023/09/26 05:35:58;;;;;;;14.33;9.57;;;16.80;90.60;;;;;;5057012;28;20678;-65
2023/09/26 05:38:26;;;;;;;11.80;9.53;;;16.90;90.60;;;;;;5058975;28;20290;-65
2023/09/26 05:40:53;;;;;;;12.60;10.10;;;16.90;90.60;;;;;;5062825;28;20302;-64
2023/09/26 05:43:20;;;;;;;13.67;9.53;;;17.00;90.50;;;;;;5056378;28;20207;-65
2023/09/26 05:45:49;;;;;;;12.03;8.60;;;17.00;90.60;;;;;;5054235;28;20208;-65
2023/09/26 05:48:16;;;;;;;15.27;8.90;;;17.20;90.50;;;;;;5066154;28;20210;-65
2023/09/26 05:50:43;;;;;;;17.17;8.97;;;17.30;90.20;;;;;;5063432;28;20231;-65
2023/09/26 05:53:11;;;;;;;12.37;9.57;;;17.30;90.10;;;;;;5060686;28;20536;-65
2023/09/26 05:55:38;;;;;;;11.83;8.23;;;17.40;90.00;;;;;;5062675;28;20641;-65
2023/09/26 05:58:05;;;;;;;14.23;9.17;;;17.60;89.70;;;;;;5052380;28;20519;-64
2023/09/26 06:00:36;;;;;;;15.17;9.07;;;17.80;88.90;;;;;;5058204;28;20271;-65
2023/09/26 06:03:03;;;;;;;12.30;9.60;;;18.00;87.70;;;;;;5057649;28;20265;-65
2023/09/26 06:05:30;;;;;;;17.53;9.30;;;18.10;87.40;;;;;;5051910;28;20201;-65
2023/09/26 06:07:57;;;;;;;15.00;9.23;;;18.10;87.30;;;;;;5064146;28;20196;-65
2023/09/26 06:10:25;;;;;;;12.10;8.37;;;18.10;87.30;;;;;;5053542;28;20234;-65
2023/09/26 06:12:53;;;;;;;15.07;8.47;;;18.10;87.40;;;;;;5064458;28;20201;-65
2023/09/26 06:15:22;;;;;;;12.87;8.73;;;18.10;87.60;;;;;;5056030;28;20208;-64
2023/09/26 06:17:50;;;;;;;18.27;9.03;;;18.20;87.80;;;;;;5058394;28;20618;-65
2023/09/26 06:20:17;;;;;;;10.70;8.40;;;18.40;87.40;;;;;;5061099;28;20290;-64
2023/09/26 06:22:44;;;;;;;10.33;8.63;;;18.50;86.80;;;;;;5056200;28;20235;-65
2023/09/26 06:25:11;;;;;;;16.37;8.50;;;18.60;86.70;;;;;;5051291;28;20205;-65
2023/09/26 06:27:38;;;;;;;10.40;8.73;;;18.60;86.70;;;;;;5047614;28;20254;-65
2023/09/26 06:30:06;;;;;;;16.17;8.53;;;18.60;86.70;;;;;;5060995;28;20611;-65
2023/09/26 06:32:37;;;;;;;16.07;9.67;;;18.60;86.60;;;;;;5062746;28;20273;-65
2023/09/26 06:35:05;;;;;;;18.60;9.40;;;18.60;86.20;;;;;;5057719;28;20198;-64
2023/09/26 06:37:33;;;;;;;11.67;9.90;;;18.50;86.20;;;;;;5056566;28;20567;-64
2023/09/26 06:40:04;;;;;;;16.47;9.67;;;18.50;86.50;;;;;;5048231;28;20495;-64
2023/09/26 06:42:32;;;;;;;13.40;10.00;;;18.40;86.80;;;;;;5053926;28;20202;-64
2023/09/26 06:44:59;;;;;;;15.00;9.60;;;18.40;87.00;;;;;;5053362;28;20221;-64
2023/09/26 06:47:27;;;;;;;13.27;9.80;;;18.40;86.90;;;;;;5055188;28;20228;-65
2023/09/26 06:49:54;;;;;;;13.20;9.73;;;18.40;87.20;;;;;;5060312;28;20211;-64
2023/09/26 06:52:25;;;;;;;12.77;10.40;;;18.40;87.40;;;;;;5057356;28;20221;-64
2023/09/26 06:54:52;;;;;;;15.50;11.50;;;18.40;87.70;;;;;;5055236;28;20201;-64
2023/09/26 06:57:26;;;;;;;13.07;11.53;;;18.40;87.70;;;;;;5049492;28;20196;-65
2023/09/26 06:59:53;;;;;;;13.13;11.53;;;18.50;87.80;;;;;;5051317;28;20549;-65
2023/09/26 07:02:20;;;;;;;15.23;11.43;;;18.60;87.90;;;;;;5051300;28;20296;-64
2023/09/26 07:04:52;;;;;;;19.13;11.87;;;18.60;88.00;;;;;;5058059;28;20221;-65
2023/09/26 07:07:19;;;;;;;22.77;13.83;;;18.70;88.00;;;;;;5059392;28;20203;-65
2023/09/26 07:09:48;;;;;;;14.73;12.43;;;18.80;87.40;;;;;;5057909;28;20224;-65
2023/09/26 07:12:17;;;;;;;17.13;13.97;;;18.90;87.10;;;;;;5056321;28;20302;-65
2023/09/26 07:14:44;;;;;;;19.40;13.43;;;19.00;87.10;;;;;;5056022;28;20214;-65
2023/09/26 07:17:11;;;;;;;19.13;13.70;;;19.10;87.00;;;;;;5055749;28;20525;-65
2023/09/26 07:19:38;;;;;;;21.67;13.83;;;19.20;87.10;;;;;;5059224;28;20197;-65
2023/09/26 07:22:05;;;;;;;17.47;13.63;;;19.30;87.20;;;;;;5050995;28;20207;-64
2023/09/26 07:24:32;;;;;;;19.10;13.10;;;19.50;87.20;;;;;;5057419;28;20212;-65
2023/09/26 07:27:18;;;;;;;18.57;14.23;;;19.60;86.90;;;;;;5049430;28;20658;-65
2023/09/26 07:34:04;;;;;;;19.60;13.67;;;20.00;86.80;;;;;;5047296;28;20181;-65
2023/09/26 07:36:32;;;;;;;18.73;12.80;;;20.20;86.00;;;;;;5053456;28;20212;-64
2023/09/26 07:38:59;;;;;;;15.00;12.33;;;20.40;85.80;;;;;;5057866;28;20256;-65
2023/09/26 07:41:26;;;;;;;14.07;10.80;;;20.60;85.60;;;;;;5062742;28;20347;-65
2023/09/26 07:43:53;;;;;;;15.17;10.90;;;20.80;84.80;;;;;;5060637;28;20681;-65
2023/09/26 07:50:33;;;;;;;14.87;10.80;;;21.20;82.30;;;;;;5044965;28;20237;-65
2023/09/26 07:53:02;;;;;;;13.60;10.53;;;21.30;80.80;;;;;;5057172;28;20222;-64
2023/09/26 07:55:29;;;;;;;13.77;10.77;;;21.40;80.80;;;;;;5071201;28;20263;-64
2023/09/26 07:57:56;;;;;;;13.33;10.57;;;21.40;80.00;;;;;;5062222;28;20586;-64
2023/09/26 08:00:23;;;;;;;13.33;9.87;;;21.60;80.00;;;;;;5062440;28;20234;-64
2023/09/26 08:02:50;;;;;;;18.23;10.80;;;21.60;79.70;;;;;;5048147;28;20198;-64
2023/09/26 08:05:17;;;;;;;15.50;11.10;;;21.80;79.50;;;;;;5056642;28;20622;-66
2023/09/26 08:07:44;;;;;;;17.93;10.87;;;21.90;79.50;;;;;;5062866;28;20204;-64
2023/09/26 08:10:12;;;;;;;16.43;11.77;;;22.10;79.10;;;;;;5062331;28;20530;-66
2023/09/26 08:12:41;;;;;;;15.83;11.10;;;22.30;78.30;;;;;;5060347;28;20709;-62
2023/09/26 08:15:09;;;;;;;15.77;11.57;;;22.50;79.00;;;;;;5060603;28;20199;-65
2023/09/26 08:17:36;;;;;;;19.73;10.93;;;22.70;78.40;;;;;;5061500;28;20269;-64
2023/09/26 08:20:03;;;;;;;13.73;11.20;;;22.90;78.00;;;;;;5056555;28;20195;-64
2023/09/26 08:22:30;;;;;;;13.07;10.63;;;23.10;77.00;;;;;;5058792;28;20652;-66
2023/09/26 08:24:57;;;;;;;13.90;10.17;;;23.30;76.00;;;;;;5058207;28;20232;-64
2023/09/26 08:27:24;;;;;;;13.93;10.80;;;23.50;74.90;;;;;;5054647;28;20668;-63
2023/09/26 08:29:52;;;;;;;14.77;9.73;;;23.70;74.70;;;;;;5059174;28;20694;-62
2023/09/26 08:32:19;;;;;;;17.47;10.10;;;23.80;73.80;;;;;;5053687;28;20230;-63
2023/09/26 08:34:46;;;;;;;13.00;9.63;;;23.90;73.80;;;;;;5062916;28;20281;-61
2023/09/26 08:37:14;;;;;;;20.23;10.67;;;24.10;72.70;;;;;;5055129;28;20267;-61
2023/09/26 08:39:43;;;;;;;11.97;9.47;;;24.20;72.00;;;;;;5059684;28;20197;-61
2023/09/26 08:42:17;;;;;;;11.67;9.00;;;24.30;72.10;;;;;;5054455;28;20234;-64
2023/09/26 08:44:44;;;;;;;13.63;9.73;;;24.40;72.30;;;;;;5060168;28;20209;-62
2023/09/26 08:47:11;;;;;;;12.40;9.27;;;24.40;71.60;;;;;;5058220;28;20229;-62
2023/09/26 08:49:41;;;;;;;13.27;9.57;;;24.40;71.70;;;;;;5061671;28;20193;-60
2023/09/26 08:55:45;;;;;;;15.40;9.80;;;24.10;71.50;;;;;;5057906;28;20191;-63
2023/09/26 08:58:14;;;;;;;16.17;10.50;;;24.00;72.30;;;;;;5062328;28;20858;-64
2023/09/26 09:00:43;;;;;;;17.77;10.13;;;24.00;72.30;;;;;;5057556;28;20242;-64
2023/09/26 09:03:10;;;;;;;13.60;10.70;;;24.00;72.80;;;;;;5059535;28;20191;-64
2023/09/26 09:05:40;;;;;;;13.37;9.70;;;24.10;73.00;;;;;;5059835;28;20245;-63
2023/09/26 09:08:08;;;;;;;14.90;10.07;;;24.10;71.90;;;;;;5063711;28;20203;-64
2023/09/26 09:10:52;;;;;;;14.07;10.00;;;24.10;72.20;;;;;;5055032;28;20284;-64
2023/09/26 09:13:28;;;;;;;15.63;10.03;;;24.30;72.50;;;;;;5057515;28;20273;-64
2023/09/26 09:16:12;;;;;;;12.57;10.23;;;24.50;72.40;;;;;;5054881;28;20648;-64
2023/09/26 09:18:42;;;;;;;11.60;10.00;;;24.80;70.60;;;;;;5053777;28;20209;-62
2023/09/26 09:21:20;;;;;;;12.03;9.83;;;24.90;69.50;;;;;;5056948;28;20222;-64
2023/09/26 09:23:48;;;;;;;13.37;9.40;;;25.10;70.20;;;;;;5053978;28;20223;-64
2023/09/26 09:26:17;;;;;;;12.60;10.07;;;25.10;70.10;;;;;;5054420;28;20201;-62
2023/09/26 09:28:44;;;;;;;13.17;9.83;;;25.20;69.90;;;;;;5048395;28;20202;-61
2023/09/26 09:31:16;;;;;;;14.57;11.17;;;25.20;70.20;;;;;;5057984;28;20809;-61
2023/09/26 09:33:45;;;;;;;12.70;10.33;;;25.20;69.80;;;;;;5052077;28;20230;-63
2023/09/26 09:36:13;;;;;;;17.70;9.80;;;25.20;69.60;;;;;;5055919;28;20187;-63
2023/09/26 09:38:41;;;;;;;13.90;9.83;;;25.10;69.50;;;;;;5052601;28;20277;-61
2023/09/26 09:41:08;;;;;;;10.03;8.67;;;25.10;71.00;;;;;;5067499;28;20640;-64
2023/09/26 09:43:37;;;;;;;11.13;9.33;;;25.10;71.00;;;;;;5054569;28;20543;-64
2023/09/26 09:46:08;;;;;;;12.57;9.70;;;25.20;69.90;;;;;;5052129;28;20656;-64
2023/09/26 09:48:46;;;;;;;12.87;8.60;;;25.40;68.80;;;;;;5056363;28;20202;-63
2023/09/26 09:51:15;;;;;;;10.37;8.80;;;25.50;69.30;;;;;;5054832;28;20198;-61
2023/09/26 09:53:53;;;;;;;10.83;8.73;;;25.70;69.60;;;;;;5056934;28;20213;-61
2023/09/26 09:56:24;;;;;;;11.07;8.43;;;25.90;69.10;;;;;;5059051;28;20283;-62
2023/09/26 09:58:56;;;;;;;8.80;7.77;;;26.10;68.60;;;;;;5058321;28;20237;-61
2023/09/26 10:01:26;;;;;;;10.63;8.27;;;26.20;67.50;;;;;;5050880;28;20217;-61
2023/09/26 10:03:53;;;;;;;9.50;7.83;;;26.30;66.70;;;;;;5051694;28;20292;-62
2023/09/26 10:06:21;;;;;;;10.90;8.10;;;26.40;66.90;;;;;;5050745;28;20211;-63
2023/09/26 10:08:49;;;;;;;8.47;7.17;;;26.50;66.70;;;;;;5049633;28;20202;-61
2023/09/26 10:11:18;;;;;;;8.23;7.33;;;26.60;65.20;;;;;;5055898;28;20197;-62
2023/09/26 10:13:49;;;;;;;9.53;7.73;;;26.60;65.80;;;;;;5060350;28;20195;-62
2023/09/26 10:16:18;;;;;;;9.37;6.93;;;26.60;65.70;;;;;;5059951;28;20640;-61
2023/09/26 10:18:47;;;;;;;9.50;7.47;;;26.70;65.50;;;;;;5052901;28;20786;-61
2023/09/26 10:21:23;;;;;;;8.57;6.93;;;26.80;65.30;;;;;;5045177;28;20204;-62
2023/09/26 10:24:08;;;;;;;8.10;7.03;;;26.90;64.30;;;;;;5055147;28;20193;-61
2023/09/26 10:26:49;;;;;;;8.27;7.47;;;27.00;64.00;;;;;;5053110;28;20564;-61
2023/09/26 10:29:28;;;;;;;9.67;8.10;;;27.00;64.10;;;;;;5049749;28;20541;-62
2023/09/26 10:32:04;;;;;;;12.67;7.23;;;27.10;62.60;;;;;;5059922;28;20657;-61
2023/09/26 10:34:36;;;;;;;9.03;7.13;;;27.10;62.70;;;;;;5056502;28;20201;-61
2023/09/26 10:37:07;;;;;;;10.83;8.23;;;27.20;62.90;;;;;;5059981;28;20190;-62
2023/09/26 10:39:39;;;;;;;9.90;7.97;;;27.20;61.70;;;;;;5055763;28;20194;-63
2023/09/26 10:42:22;;;;;;;9.30;7.63;;;27.20;61.40;;;;;;5060721;28;20219;-62
2023/09/26 10:44:52;;;;;;;9.30;7.43;;;27.30;60.90;;;;;;5059825;28;20260;-62
2023/09/26 10:47:21;;;;;;;10.00;7.03;;;27.40;61.50;;;;;;5061282;28;20304;-61
2023/09/26 10:49:48;;;;;;;11.73;7.83;;;27.50;62.00;;;;;;5060523;28;20675;-64
2023/09/26 10:52:16;;;;;;;9.23;7.40;;;27.60;62.20;;;;;;5055914;28;20227;-62
2023/09/26 10:54:43;;;;;;;8.50;7.60;;;27.70;62.00;;;;;;5061443;28;20220;-63
2023/09/26 10:57:20;;;;;;;8.87;7.83;;;27.80;61.50;;;;;;5061476;28;20267;-64
2023/09/26 10:59:49;;;;;;;8.03;6.80;;;27.90;60.70;;;;;;5059344;28;20290;-63
2023/09/26 11:02:16;;;;;;;8.43;7.63;;;27.90;60.10;;;;;;5057101;28;20264;-63
2023/09/26 11:04:43;;;;;;;8.70;7.33;;;28.00;60.50;;;;;;5063097;28;20638;-62
2023/09/26 11:07:11;;;;;;;11.43;8.00;;;28.00;60.30;;;;;;5055905;28;20203;-64
2023/09/26 11:09:44;;;;;;;10.47;7.37;;;28.00;60.00;;;;;;5057004;28;20643;-65
2023/09/26 11:12:12;;;;;;;9.77;7.47;;;28.10;59.60;;;;;;5054579;28;20569;-62
2023/09/26 11:14:40;;;;;;;8.67;7.20;;;28.00;58.70;;;;;;5057191;28;20217;-62
2023/09/26 11:17:11;;;;;;;9.80;7.33;;;28.00;59.20;;;;;;5054660;28;20292;-62
2023/09/26 11:19:38;;;;;;;8.83;7.30;;;28.00;58.90;;;;;;5057426;28;20202;-62
2023/09/26 11:22:06;;;;;;;9.73;7.50;;;28.00;59.80;;;;;;5057108;28;20210;-62
2023/09/26 11:24:33;;;;;;;8.47;7.60;;;28.10;59.60;;;;;;5054451;28;20278;-62
2023/09/26 11:27:03;;;;;;;10.67;7.30;;;28.10;59.10;;;;;;5059637;28;20554;-62
2023/09/26 11:29:34;;;;;;;13.10;7.83;;;28.10;58.40;;;;;;5052397;28;20673;-63
2023/09/26 11:32:03;;;;;;;11.13;7.33;;;28.10;59.00;;;;;;5056650;28;20541;-62
2023/09/26 11:34:34;;;;;;;8.10;7.30;;;28.10;58.10;;;;;;5055800;28;20663;-63
2023/09/26 11:37:05;;;;;;;8.60;7.13;;;27.90;58.20;;;;;;5057361;28;20262;-64
2023/09/26 11:39:32;;;;;;;7.80;7.00;;;27.80;59.40;;;;;;5054398;28;20201;-63
2023/09/26 11:42:17;;;;;;;9.50;7.77;;;27.70;59.90;;;;;;5048168;28;20194;-62
2023/09/26 11:44:54;;;;;;;8.60;7.27;;;27.80;60.30;;;;;;5056218;28;20198;-62
2023/09/26 11:47:22;;;;;;;8.47;7.30;;;28.00;60.30;;;;;;5045878;28;20191;-62
2023/09/26 11:49:51;;;;;;;10.43;7.90;;;28.10;59.80;;;;;;5055725;28;20201;-63
2023/09/26 11:52:18;;;;;;;9.37;7.37;;;28.30;58.50;;;;;;5052965;28;20207;-64
2023/09/26 11:54:45;;;;;;;8.67;7.77;;;28.40;58.40;;;;;;5055234;28;20292;-64
2023/09/26 11:57:13;;;;;;;9.43;7.13;;;28.50;58.90;;;;;;5058234;28;20209;-63
2023/09/26 11:59:40;;;;;;;9.80;7.40;;;28.60;58.10;;;;;;5043797;28;20238;-64
2023/09/26 12:02:10;;;;;;;8.10;7.30;;;28.60;56.70;;;;;;5051315;28;20282;-63
2023/09/26 12:04:39;;;;;;;10.27;7.67;;;28.60;56.90;;;;;;5053936;28;20210;-63
2023/09/26 12:07:08;;;;;;;11.93;7.63;;;28.60;56.20;;;;;;5050479;28;20206;-63
2023/09/26 12:09:35;;;;;;;8.27;7.27;;;28.60;56.50;;;;;;5055974;28;20202;-65
2023/09/26 12:12:02;;;;;;;8.60;7.40;;;28.50;56.60;;;;;;5058893;28;20309;-64
2023/09/26 12:14:29;;;;;;;9.77;7.63;;;28.60;56.60;;;;;;5059493;28;20205;-64
2023/09/26 12:16:56;;;;;;;8.97;7.27;;;28.60;56.70;;;;;;5049485;28;20202;-64
2023/09/26 12:19:24;;;;;;;8.60;7.70;;;28.60;57.30;;;;;;5047873;28;20203;-64
2023/09/26 12:21:51;;;;;;;8.53;7.23;;;28.70;57.20;;;;;;5049751;28;20234;-64
2023/09/26 12:24:18;;;;;;;10.70;7.30;;;28.70;56.70;;;;;;5068227;28;20224;-64
2023/09/26 12:26:46;;;;;;;7.70;7.00;;;28.60;56.80;;;;;;5056895;28;20225;-64
2023/09/26 12:29:17;;;;;;;10.70;6.93;;;28.50;56.60;;;;;;5059776;28;20216;-65
2023/09/26 12:31:44;;;;;;;8.93;7.40;;;28.50;56.80;;;;;;5056419;28;20237;-64
2023/09/26 12:34:14;;;;;;;10.97;6.63;;;28.50;57.20;;;;;;5042999;28;20245;-65
2023/09/26 12:36:41;;;;;;;9.80;6.93;;;28.50;57.30;;;;;;5048227;28;20193;-65
2023/09/26 12:39:09;;;;;;;9.47;6.57;;;28.50;57.50;;;;;;5048182;28;20204;-65
2023/09/26 12:41:36;;;;;;;8.10;7.30;;;28.60;57.40;;;;;;5052992;28;20265;-64
2023/09/26 12:44:03;;;;;;;9.67;6.07;;;28.60;57.70;;;;;;5055398;28;20203;-64
2023/09/26 12:46:30;;;;;;;9.07;6.40;;;28.60;57.40;;;;;;5056122;28;20207;-65
2023/09/26 12:48:57;;;;;;;8.87;7.30;;;28.60;57.00;;;;;;5056264;28;20242;-64
2023/09/26 12:51:27;;;;;;;7.77;6.37;;;28.70;57.40;;;;;;5045440;28;20202;-64
2023/09/26 12:53:54;;;;;;;8.93;6.47;;;28.80;57.40;;;;;;5049411;28;20219;-64